Welcome to our new website - Welkom op onze vernieuwde website - Bienvenue sur notre nouveau site web - Willkommen auf unserer neuen Website
Check our progress frequently. Prüfen Sie unsere Fortschritte regelmäßig. Consultez notre progression fréquemment. Komt u straks nog eens terug


Bezoek onze andere website:

Template documentation
and downloads

And another site



METAR rapporten vliegvelden

   
EBBR - Brussels International Airport, Belgium
Afstand tot: W 14 km
Gewijzigd: Dec 12 2018 9:50 pm
Gedeeltelijk bewolkt  
Gedeeltelijk bewolkt  
   Wind: Oosten 6 km/h
Wind: Oosten 6 km/h
Temperatuur: 0°C
Voelt als: -2°C
Dauwpunt: -1°C
Vochtigheid: 93%
Barometer: 1023 hPa
Bewolking: Gedeeltelijk bewolkt
Zicht: 7 km
Bewolking: Gedeeltelijk bewolkt 1188.7 m
EBBR 122050Z 08003KT 7000 SCT039 00/M01 Q1023 NOSIG
EBBE - Beauvechain (Bevekom), Belgium
Afstand tot: ZZO 17 km
Gewijzigd: Dec 12 2018 9:55 pm
Licht bewolkt  
Licht bewolkt  
   Wind: ONO 9 km/h
Wind: ONO 9 km/h
Temperatuur: 0°C
Voelt als: -3°C
Dauwpunt: -1°C
Vochtigheid: 93%
Barometer: 1023 hPa
Bewolking: Licht bewolkt
Zicht: 6 km
Bewolking: Licht bewolkt 1158.2 m
EBBE 122055Z AUTO 07005KT 6000 FEW038/// 00/M01 Q1023 WHT
EBDT - Schaffen, Belgium
Afstand tot: ONO 29 km
Gewijzigd: Dec 12 2018 9:55 pm
Helder  
Helder  
   Wind: ONO 9 km/h
Wind: ONO 9 km/h
Temperatuur: 1°C
Voelt als: -2°C
Dauwpunt: 0°C
Vochtigheid: 93%
Barometer: 1023 hPa
Bewolking: Helder
Zicht: 6 km
Bewolking: Helder
EBDT 122055Z AUTO 06005KT 6000 NCD 01/M00 Q1023 WHT
EBAW - Antwerp/Deurne, Belgium
Afstand tot: NNW 38 km
Gewijzigd: Dec 12 2018 9:50 pm
Helder  
Helder  
   Wind: ONO 11 km/h
Wind: ONO 11 km/h
Temperatuur: 1°C
Voelt als: -2°C
Dauwpunt: 0°C
Vochtigheid: 93%
Barometer: 1024 hPa
Zicht: meer dan 10 km
Bewolking: Helder
EBAW 122050Z 07006KT CAVOK 01/M00 Q1024 NOSIG
EBCI - Charleroi/Gosselies, Belgium
Afstand tot: ZZW 51 km
Gewijzigd: Dec 12 2018 9:50 pm
Nevel, Licht bewolkt  
Nevel, Licht bewolkt  
   Wind: Oosten 15 km/h
Wind: Oosten 15 km/h
Temperatuur: 0°C
Voelt als: -4°C
Dauwpunt: -1°C
Vochtigheid: 93%
Barometer: 1022 hPa
Bewolking: Licht bewolkt
Zicht: 5 km
Bewolking: Licht bewolkt 914.4 m
EBCI 122050Z 08008KT 5000 BR FEW030 00/M01 Q1022 NOSIG
EBLG - Bierset/Liege, Belgium
Afstand tot: OZO 60 km
Gewijzigd: Dec 12 2018 9:50 pm
Licht bewolkt  
Licht bewolkt  
   Wind: Oosten 6 km/h
Wind: Oosten 6 km/h
Temperatuur: 0°C
Voelt als: -2°C
Dauwpunt: -1°C
Vochtigheid: 93%
Barometer: 1022 hPa
Bewolking: Licht bewolkt
Zicht: 8 km
Bewolking: Licht bewolkt 975.4 m
EBLG 122050Z 08003KT 040V140 8000 FEW032 M00/M01 Q1022 NOSIG

Script ontwikkeld door  Saratoga-weather.org Aangepast voor de template door  Weerstation Leuven

U vindt ons ook hier:

Het Weer Aktueel

UK Metoffice

European Weather Network

WeatherCloud

Weather Underground

AWEKAS

Apparatuur in gebruik:

Weerstation
Davis VP2

Weerprogramma
Meteobridge

Weercomputer
Tl-mr3020

Webleverancier
VIP Internet

Davis VP2

Meteobridge

Tl-mr3020

VIP Internet